首页
METAR-TAF:

METAR-TAF

机场 :

伯尔尼-贝尔普机场

伯尔尼, 瑞士

纬度: 46-55N, 经度: 007-30E, 海拔: 505米

当前天气观测

该预报发布于20分钟前的19:20 UTC
风速6节,风向东北,在北转东北东转东南之间变化
温度 2°C
湿度 69%
气压 1021 hPa
能见度10公里或以上
多云层高于2900英尺

METAR: LSZB 301920Z AUTO 05006KT 020V110 9999 BKN029 02/M03 Q1021

时间: 21:40 (19:40 UTC)

预报

该预报发布于5小时和15分钟前的14:25 UTC
预报有效从30日的 15点(UTC)到 30日的 24点(UTC)
风速10节,风向
能见度10公里或以上
多云层高于3000英尺
成为
从 30日的 16点(UTC)到 30日的 19点(UTC)
风速3节,风向多变
成为
从 30日的 20点(UTC)到 30日的 23点(UTC)
能见度10公里或以上
1500米以下无云,无积雨云

TAF: LSZB 301425Z 3015/3024 08010KT 9999 BKN030 BECMG 3016/3019 VRB03KT BECMG 3020/3023 CAVOK

超过4000个机场的气象观测和天气预报(METAR&TAF报告)。

可查询的气象台以黄色和红色小点在地图上表示。

将鼠标移到小点上方,可查看气象台名称。

然后点击查看天气观测和预报。

如需切换地图:点击带黑十字的绿色按钮放大地图;点击带横线的绿色按钮缩小地图;或者点击绿色箭头查看邻近地区的地图。


METAR-TAF: